sensor_id;sensor_type;location;lat;lon;timestamp;P1;durP1;ratioP1;P2;durP2;ratioP2
17398;SDS011;8817;48.170;8.592;2023-05-10T00:01:26;4.50;;;4.40;;
17398;SDS011;8817;48.170;8.592;2023-05-10T00:03:53;4.40;;;4.40;;
17398;SDS011;8817;48.170;8.592;2023-05-10T00:06:20;4.40;;;4.35;;
17398;SDS011;8817;48.170;8.592;2023-05-10T00:08:47;4.40;;;4.35;;
17398;SDS011;8817;48.170;8.592;2023-05-10T00:11:13;4.50;;;4.40;;
17398;SDS011;8817;48.170;8.592;2023-05-10T00:13:42;4.60;;;4.50;;
17398;SDS011;8817;48.170;8.592;2023-05-10T00:16:08;4.60;;;4.50;;
17398;SDS011;8817;48.170;8.592;2023-05-10T00:18:37;4.40;;;4.30;;
17398;SDS011;8817;48.170;8.592;2023-05-10T00:21:04;4.40;;;4.40;;
17398;SDS011;8817;48.170;8.592;2023-05-10T00:23:31;4.63;;;4.40;;
17398;SDS011;8817;48.170;8.592;2023-05-10T00:25:58;4.57;;;4.40;;
17398;SDS011;8817;48.170;8.592;2023-05-10T00:28:25;4.40;;;4.30;;
17398;SDS011;8817;48.170;8.592;2023-05-10T00:30:55;5.10;;;4.68;;
17398;SDS011;8817;48.170;8.592;2023-05-10T00:33:21;4.40;;;4.30;;
17398;SDS011;8817;48.170;8.592;2023-05-10T00:35:48;4.30;;;4.20;;
17398;SDS011;8817;48.170;8.592;2023-05-10T00:38:15;4.53;;;4.43;;
17398;SDS011;8817;48.170;8.592;2023-05-10T00:40:42;4.40;;;4.30;;
17398;SDS011;8817;48.170;8.592;2023-05-10T00:43:09;4.50;;;4.40;;
17398;SDS011;8817;48.170;8.592;2023-05-10T00:45:36;4.40;;;4.30;;
17398;SDS011;8817;48.170;8.592;2023-05-10T00:48:05;4.25;;;4.20;;
17398;SDS011;8817;48.170;8.592;2023-05-10T00:50:32;4.60;;;4.50;;
17398;SDS011;8817;48.170;8.592;2023-05-10T00:52:59;4.38;;;4.28;;
17398;SDS011;8817;48.170;8.592;2023-05-10T00:55:28;4.70;;;4.60;;
17398;SDS011;8817;48.170;8.592;2023-05-10T00:57:56;5.37;;;4.57;;
17398;SDS011;8817;48.170;8.592;2023-05-10T01:00:23;4.40;;;4.30;;
17398;SDS011;8817;48.170;8.592;2023-05-10T01:02:50;4.50;;;4.40;;
17398;SDS011;8817;48.170;8.592;2023-05-10T01:05:19;4.30;;;4.20;;
17398;SDS011;8817;48.170;8.592;2023-05-10T01:07:48;4.60;;;4.50;;
17398;SDS011;8817;48.170;8.592;2023-05-10T01:10:15;4.40;;;4.30;;
17398;SDS011;8817;48.170;8.592;2023-05-10T01:12:42;4.22;;;4.13;;
17398;SDS011;8817;48.170;8.592;2023-05-10T01:15:11;4.30;;;4.20;;
17398;SDS011;8817;48.170;8.592;2023-05-10T01:17:39;4.50;;;4.20;;
17398;SDS011;8817;48.170;8.592;2023-05-10T01:20:08;4.60;;;4.50;;
17398;SDS011;8817;48.170;8.592;2023-05-10T01:22:42;4.33;;;4.23;;
17398;SDS011;8817;48.170;8.592;2023-05-10T01:25:37;4.10;;;4.10;;
17398;SDS011;8817;48.170;8.592;2023-05-10T01:31:18;4.40;;;4.30;;
17398;SDS011;8817;48.170;8.592;2023-05-10T01:34:02;4.17;;;4.07;;
17398;SDS011;8817;48.170;8.592;2023-05-10T01:36:35;4.28;;;4.18;;
17398;SDS011;8817;48.170;8.592;2023-05-10T01:39:11;4.20;;;4.20;;
17398;SDS011;8817;48.170;8.592;2023-05-10T01:41:45;4.22;;;4.10;;
17398;SDS011;8817;48.170;8.592;2023-05-10T01:44:18;4.50;;;4.40;;
17398;SDS011;8817;48.170;8.592;2023-05-10T01:46:52;4.50;;;4.30;;
17398;SDS011;8817;48.170;8.592;2023-05-10T01:49:25;4.60;;;4.40;;
17398;SDS011;8817;48.170;8.592;2023-05-10T01:51:58;4.67;;;4.57;;
17398;SDS011;8817;48.170;8.592;2023-05-10T01:54:28;4.40;;;4.30;;
17398;SDS011;8817;48.170;8.592;2023-05-10T01:56:56;4.72;;;4.47;;
17398;SDS011;8817;48.170;8.592;2023-05-10T01:59:29;4.30;;;4.20;;
17398;SDS011;8817;48.170;8.592;2023-05-10T02:02:01;4.70;;;4.50;;
17398;SDS011;8817;48.170;8.592;2023-05-10T02:04:32;4.50;;;4.40;;
17398;SDS011;8817;48.170;8.592;2023-05-10T02:07:02;4.67;;;4.47;;
17398;SDS011;8817;48.170;8.592;2023-05-10T02:09:30;4.83;;;4.60;;
17398;SDS011;8817;48.170;8.592;2023-05-10T02:11:59;4.30;;;4.20;;
17398;SDS011;8817;48.170;8.592;2023-05-10T02:14:30;4.40;;;4.30;;
17398;SDS011;8817;48.170;8.592;2023-05-10T02:17:00;4.60;;;4.50;;
17398;SDS011;8817;48.170;8.592;2023-05-10T02:19:31;4.55;;;4.45;;
17398;SDS011;8817;48.170;8.592;2023-05-10T02:22:00;4.70;;;4.60;;
17398;SDS011;8817;48.170;8.592;2023-05-10T02:24:27;4.40;;;4.30;;
17398;SDS011;8817;48.170;8.592;2023-05-10T02:26:55;4.65;;;4.50;;
17398;SDS011;8817;48.170;8.592;2023-05-10T02:29:23;4.27;;;4.23;;
17398;SDS011;8817;48.170;8.592;2023-05-10T02:31:54;4.55;;;4.45;;
17398;SDS011;8817;48.170;8.592;2023-05-10T02:34:21;4.63;;;4.53;;
17398;SDS011;8817;48.170;8.592;2023-05-10T02:36:50;4.70;;;4.60;;
17398;SDS011;8817;48.170;8.592;2023-05-10T02:39:18;4.70;;;4.60;;
17398;SDS011;8817;48.170;8.592;2023-05-10T02:41:46;4.80;;;4.70;;
17398;SDS011;8817;48.170;8.592;2023-05-10T02:44:15;4.72;;;4.55;;
17398;SDS011;8817;48.170;8.592;2023-05-10T02:46:45;5.10;;;4.90;;
17398;SDS011;8817;48.170;8.592;2023-05-10T02:49:13;4.60;;;4.50;;
17398;SDS011;8817;48.170;8.592;2023-05-10T02:51:40;5.03;;;4.93;;
17398;SDS011;8817;48.170;8.592;2023-05-10T02:54:13;4.47;;;4.37;;
17398;SDS011;8817;48.170;8.592;2023-05-10T02:56:47;4.60;;;4.50;;
17398;SDS011;8817;48.170;8.592;2023-05-10T02:59:17;4.60;;;4.50;;
17398;SDS011;8817;48.170;8.592;2023-05-10T03:01:44;4.63;;;4.53;;
17398;SDS011;8817;48.170;8.592;2023-05-10T03:04:11;4.80;;;4.70;;
17398;SDS011;8817;48.170;8.592;2023-05-10T03:06:38;4.77;;;4.67;;
17398;SDS011;8817;48.170;8.592;2023-05-10T03:09:05;5.10;;;4.80;;
17398;SDS011;8817;48.170;8.592;2023-05-10T03:11:39;5.20;;;5.10;;
17398;SDS011;8817;48.170;8.592;2023-05-10T03:14:16;5.77;;;5.47;;
17398;SDS011;8817;48.170;8.592;2023-05-10T03:16:52;5.30;;;5.10;;
17398;SDS011;8817;48.170;8.592;2023-05-10T03:19:26;4.90;;;4.80;;
17398;SDS011;8817;48.170;8.592;2023-05-10T03:21:58;5.20;;;5.00;;
17398;SDS011;8817;48.170;8.592;2023-05-10T03:24:28;4.90;;;4.80;;
17398;SDS011;8817;48.170;8.592;2023-05-10T03:26:58;4.90;;;4.80;;
17398;SDS011;8817;48.170;8.592;2023-05-10T03:29:27;4.82;;;4.72;;
17398;SDS011;8817;48.170;8.592;2023-05-10T03:31:57;5.00;;;4.90;;
17398;SDS011;8817;48.170;8.592;2023-05-10T03:34:24;4.90;;;4.70;;
17398;SDS011;8817;48.170;8.592;2023-05-10T03:36:52;4.80;;;4.70;;
17398;SDS011;8817;48.170;8.592;2023-05-10T03:39:18;5.30;;;5.10;;
17398;SDS011;8817;48.170;8.592;2023-05-10T03:41:46;4.70;;;4.60;;
17398;SDS011;8817;48.170;8.592;2023-05-10T03:44:16;5.20;;;4.83;;
17398;SDS011;8817;48.170;8.592;2023-05-10T03:46:43;5.00;;;4.90;;
17398;SDS011;8817;48.170;8.592;2023-05-10T03:49:10;5.00;;;4.90;;
17398;SDS011;8817;48.170;8.592;2023-05-10T03:51:37;5.87;;;4.90;;
17398;SDS011;8817;48.170;8.592;2023-05-10T03:54:04;5.00;;;4.90;;
17398;SDS011;8817;48.170;8.592;2023-05-10T03:56:31;5.13;;;4.80;;
17398;SDS011;8817;48.170;8.592;2023-05-10T03:58:58;4.80;;;4.70;;
17398;SDS011;8817;48.170;8.592;2023-05-10T04:01:26;5.10;;;5.00;;
17398;SDS011;8817;48.170;8.592;2023-05-10T04:03:53;5.10;;;5.00;;
17398;SDS011;8817;48.170;8.592;2023-05-10T04:06:20;5.07;;;4.97;;
17398;SDS011;8817;48.170;8.592;2023-05-10T04:08:47;5.40;;;5.00;;
17398;SDS011;8817;48.170;8.592;2023-05-10T04:11:13;5.00;;;4.90;;
17398;SDS011;8817;48.170;8.592;2023-05-10T04:13:40;5.10;;;5.00;;
17398;SDS011;8817;48.170;8.592;2023-05-10T04:16:08;5.10;;;5.00;;
17398;SDS011;8817;48.170;8.592;2023-05-10T04:18:36;5.50;;;5.30;;
17398;SDS011;8817;48.170;8.592;2023-05-10T04:21:04;5.43;;;5.33;;
17398;SDS011;8817;48.170;8.592;2023-05-10T04:23:36;5.63;;;5.10;;
17398;SDS011;8817;48.170;8.592;2023-05-10T04:26:03;5.00;;;4.90;;
17398;SDS011;8817;48.170;8.592;2023-05-10T04:28:30;5.38;;;5.22;;
17398;SDS011;8817;48.170;8.592;2023-05-10T04:31:01;4.80;;;4.70;;
17398;SDS011;8817;48.170;8.592;2023-05-10T04:33:28;5.10;;;5.00;;
17398;SDS011;8817;48.170;8.592;2023-05-10T04:35:57;5.30;;;5.10;;
17398;SDS011;8817;48.170;8.592;2023-05-10T04:38:24;5.50;;;5.30;;
17398;SDS011;8817;48.170;8.592;2023-05-10T04:40:51;5.33;;;5.13;;
17398;SDS011;8817;48.170;8.592;2023-05-10T04:43:17;5.20;;;5.00;;
17398;SDS011;8817;48.170;8.592;2023-05-10T04:45:45;4.90;;;4.80;;
17398;SDS011;8817;48.170;8.592;2023-05-10T04:48:12;5.00;;;4.90;;
17398;SDS011;8817;48.170;8.592;2023-05-10T04:50:39;5.10;;;5.00;;
17398;SDS011;8817;48.170;8.592;2023-05-10T04:53:07;5.30;;;5.10;;
17398;SDS011;8817;48.170;8.592;2023-05-10T04:55:34;4.80;;;4.70;;
17398;SDS011;8817;48.170;8.592;2023-05-10T04:58:01;5.20;;;5.00;;
17398;SDS011;8817;48.170;8.592;2023-05-10T05:00:28;5.83;;;5.63;;
17398;SDS011;8817;48.170;8.592;2023-05-10T05:02:55;5.18;;;4.97;;
17398;SDS011;8817;48.170;8.592;2023-05-10T05:05:22;5.00;;;4.90;;
17398;SDS011;8817;48.170;8.592;2023-05-10T05:07:49;5.20;;;5.10;;
17398;SDS011;8817;48.170;8.592;2023-05-10T05:10:18;5.13;;;5.00;;
17398;SDS011;8817;48.170;8.592;2023-05-10T05:12:45;5.00;;;4.90;;
17398;SDS011;8817;48.170;8.592;2023-05-10T05:15:12;5.00;;;4.90;;
17398;SDS011;8817;48.170;8.592;2023-05-10T05:17:40;5.03;;;4.93;;
17398;SDS011;8817;48.170;8.592;2023-05-10T05:20:07;5.43;;;5.00;;
17398;SDS011;8817;48.170;8.592;2023-05-10T05:22:35;5.20;;;5.10;;
17398;SDS011;8817;48.170;8.592;2023-05-10T05:25:02;5.30;;;5.10;;
17398;SDS011;8817;48.170;8.592;2023-05-10T05:27:31;5.40;;;5.20;;
17398;SDS011;8817;48.170;8.592;2023-05-10T05:29:58;6.10;;;5.80;;
17398;SDS011;8817;48.170;8.592;2023-05-10T05:32:25;5.70;;;5.50;;
17398;SDS011;8817;48.170;8.592;2023-05-10T05:34:52;6.03;;;5.60;;
17398;SDS011;8817;48.170;8.592;2023-05-10T05:37:19;5.55;;;5.35;;
17398;SDS011;8817;48.170;8.592;2023-05-10T05:39:47;6.10;;;5.80;;
17398;SDS011;8817;48.170;8.592;2023-05-10T05:42:14;6.10;;;5.70;;
17398;SDS011;8817;48.170;8.592;2023-05-10T05:44:44;5.38;;;5.18;;
17398;SDS011;8817;48.170;8.592;2023-05-10T05:47:10;5.40;;;5.07;;
17398;SDS011;8817;48.170;8.592;2023-05-10T05:49:38;5.15;;;5.00;;
17398;SDS011;8817;48.170;8.592;2023-05-10T05:52:05;5.33;;;5.10;;
17398;SDS011;8817;48.170;8.592;2023-05-10T05:54:31;5.17;;;4.93;;
17398;SDS011;8817;48.170;8.592;2023-05-10T05:56:59;5.10;;;4.93;;
17398;SDS011;8817;48.170;8.592;2023-05-10T05:59:26;5.70;;;5.50;;
17398;SDS011;8817;48.170;8.592;2023-05-10T06:01:55;5.27;;;5.07;;
17398;SDS011;8817;48.170;8.592;2023-05-10T06:04:22;5.27;;;5.07;;
17398;SDS011;8817;48.170;8.592;2023-05-10T06:06:49;5.43;;;5.22;;
17398;SDS011;8817;48.170;8.592;2023-05-10T06:09:15;5.60;;;5.10;;
17398;SDS011;8817;48.170;8.592;2023-05-10T06:11:42;4.90;;;4.70;;
17398;SDS011;8817;48.170;8.592;2023-05-10T06:14:09;6.90;;;6.23;;
17398;SDS011;8817;48.170;8.592;2023-05-10T06:16:36;5.95;;;5.55;;
17398;SDS011;8817;48.170;8.592;2023-05-10T06:19:05;5.82;;;5.43;;
17398;SDS011;8817;48.170;8.592;2023-05-10T06:21:31;5.63;;;5.35;;
17398;SDS011;8817;48.170;8.592;2023-05-10T06:23:58;5.23;;;5.10;;
17398;SDS011;8817;48.170;8.592;2023-05-10T06:26:25;5.50;;;5.30;;
17398;SDS011;8817;48.170;8.592;2023-05-10T06:28:52;5.75;;;5.45;;
17398;SDS011;8817;48.170;8.592;2023-05-10T06:31:19;5.00;;;4.90;;
17398;SDS011;8817;48.170;8.592;2023-05-10T06:33:46;5.60;;;5.27;;
17398;SDS011;8817;48.170;8.592;2023-05-10T06:36:14;5.30;;;5.10;;
17398;SDS011;8817;48.170;8.592;2023-05-10T06:38:41;5.20;;;4.90;;
17398;SDS011;8817;48.170;8.592;2023-05-10T06:41:07;5.33;;;5.13;;
17398;SDS011;8817;48.170;8.592;2023-05-10T06:43:34;5.00;;;4.90;;
17398;SDS011;8817;48.170;8.592;2023-05-10T06:46:04;5.40;;;5.20;;
17398;SDS011;8817;48.170;8.592;2023-05-10T06:48:31;5.80;;;5.20;;
17398;SDS011;8817;48.170;8.592;2023-05-10T06:50:59;5.40;;;5.10;;
17398;SDS011;8817;48.170;8.592;2023-05-10T06:53:27;5.80;;;5.40;;
17398;SDS011;8817;48.170;8.592;2023-05-10T06:55:54;5.40;;;5.20;;
17398;SDS011;8817;48.170;8.592;2023-05-10T06:58:20;5.97;;;5.68;;
17398;SDS011;8817;48.170;8.592;2023-05-10T07:00:47;5.55;;;5.28;;
17398;SDS011;8817;48.170;8.592;2023-05-10T07:03:14;5.55;;;5.25;;
17398;SDS011;8817;48.170;8.592;2023-05-10T07:05:41;6.00;;;5.50;;
17398;SDS011;8817;48.170;8.592;2023-05-10T07:08:08;5.20;;;5.00;;
17398;SDS011;8817;48.170;8.592;2023-05-10T07:10:36;5.43;;;5.00;;
17398;SDS011;8817;48.170;8.592;2023-05-10T07:13:03;5.40;;;5.20;;
17398;SDS011;8817;48.170;8.592;2023-05-10T07:15:30;4.70;;;4.60;;
17398;SDS011;8817;48.170;8.592;2023-05-10T07:17:58;5.60;;;4.80;;
17398;SDS011;8817;48.170;8.592;2023-05-10T07:20:25;5.53;;;5.20;;
17398;SDS011;8817;48.170;8.592;2023-05-10T07:22:52;5.10;;;4.90;;
17398;SDS011;8817;48.170;8.592;2023-05-10T07:25:19;5.23;;;5.03;;
17398;SDS011;8817;48.170;8.592;2023-05-10T07:27:47;5.60;;;5.40;;
17398;SDS011;8817;48.170;8.592;2023-05-10T07:30:14;4.97;;;4.83;;
17398;SDS011;8817;48.170;8.592;2023-05-10T07:32:41;5.40;;;5.20;;
17398;SDS011;8817;48.170;8.592;2023-05-10T07:35:08;5.25;;;5.15;;
17398;SDS011;8817;48.170;8.592;2023-05-10T07:37:35;5.43;;;5.23;;
17398;SDS011;8817;48.170;8.592;2023-05-10T07:40:02;5.30;;;5.10;;
17398;SDS011;8817;48.170;8.592;2023-05-10T07:42:29;5.30;;;5.20;;
17398;SDS011;8817;48.170;8.592;2023-05-10T07:44:57;5.30;;;5.17;;
17398;SDS011;8817;48.170;8.592;2023-05-10T07:47:24;5.47;;;5.37;;
17398;SDS011;8817;48.170;8.592;2023-05-10T07:49:51;5.50;;;5.40;;
17398;SDS011;8817;48.170;8.592;2023-05-10T07:52:18;5.63;;;5.47;;
17398;SDS011;8817;48.170;8.592;2023-05-10T07:54:45;5.40;;;5.10;;
17398;SDS011;8817;48.170;8.592;2023-05-10T07:57:12;5.30;;;5.10;;
17398;SDS011;8817;48.170;8.592;2023-05-10T07:59:42;5.57;;;5.20;;
17398;SDS011;8817;48.170;8.592;2023-05-10T08:02:10;5.30;;;5.20;;
17398;SDS011;8817;48.170;8.592;2023-05-10T08:04:37;5.40;;;5.20;;
17398;SDS011;8817;48.170;8.592;2023-05-10T08:07:04;5.17;;;5.00;;
17398;SDS011;8817;48.170;8.592;2023-05-10T08:09:31;5.60;;;5.30;;
17398;SDS011;8817;48.170;8.592;2023-05-10T08:11:58;5.80;;;5.60;;
17398;SDS011;8817;48.170;8.592;2023-05-10T08:14:25;5.40;;;5.20;;
17398;SDS011;8817;48.170;8.592;2023-05-10T08:16:54;5.13;;;5.03;;
17398;SDS011;8817;48.170;8.592;2023-05-10T08:19:22;5.70;;;5.50;;
17398;SDS011;8817;48.170;8.592;2023-05-10T08:21:49;5.68;;;5.47;;
17398;SDS011;8817;48.170;8.592;2023-05-10T08:24:16;5.50;;;5.30;;
17398;SDS011;8817;48.170;8.592;2023-05-10T08:26:43;5.23;;;5.03;;
17398;SDS011;8817;48.170;8.592;2023-05-10T08:29:10;5.20;;;5.10;;
17398;SDS011;8817;48.170;8.592;2023-05-10T08:31:36;4.80;;;4.70;;
17398;SDS011;8817;48.170;8.592;2023-05-10T08:34:03;5.20;;;4.90;;
17398;SDS011;8817;48.170;8.592;2023-05-10T08:36:31;5.40;;;5.20;;
17398;SDS011;8817;48.170;8.592;2023-05-10T08:38:58;5.30;;;5.20;;
17398;SDS011;8817;48.170;8.592;2023-05-10T08:41:25;5.40;;;4.90;;
17398;SDS011;8817;48.170;8.592;2023-05-10T08:43:53;5.22;;;5.13;;
17398;SDS011;8817;48.170;8.592;2023-05-10T08:46:20;4.87;;;4.77;;
17398;SDS011;8817;48.170;8.592;2023-05-10T08:48:48;4.97;;;4.88;;
17398;SDS011;8817;48.170;8.592;2023-05-10T08:51:17;5.00;;;4.80;;
17398;SDS011;8817;48.170;8.592;2023-05-10T08:53:47;5.25;;;5.05;;
17398;SDS011;8817;48.170;8.592;2023-05-10T08:56:15;5.00;;;4.80;;
17398;SDS011;8817;48.170;8.592;2023-05-10T08:58:42;4.88;;;4.78;;
17398;SDS011;8817;48.170;8.592;2023-05-10T09:01:10;5.30;;;5.10;;
17398;SDS011;8817;48.170;8.592;2023-05-10T09:03:38;5.10;;;4.90;;
17398;SDS011;8817;48.170;8.592;2023-05-10T09:06:06;5.53;;;5.00;;
17398;SDS011;8817;48.170;8.592;2023-05-10T09:08:33;4.90;;;4.70;;
17398;SDS011;8817;48.170;8.592;2023-05-10T09:11:01;4.95;;;4.85;;
17398;SDS011;8817;48.170;8.592;2023-05-10T09:13:28;5.10;;;5.00;;
17398;SDS011;8817;48.170;8.592;2023-05-10T09:15:56;5.00;;;4.90;;
17398;SDS011;8817;48.170;8.592;2023-05-10T09:18:24;5.00;;;4.90;;
17398;SDS011;8817;48.170;8.592;2023-05-10T09:20:50;6.20;;;5.75;;
17398;SDS011;8817;48.170;8.592;2023-05-10T09:23:17;5.35;;;5.15;;
17398;SDS011;8817;48.170;8.592;2023-05-10T09:25:44;5.43;;;5.20;;
17398;SDS011;8817;48.170;8.592;2023-05-10T09:28:13;4.60;;;4.50;;
17398;SDS011;8817;48.170;8.592;2023-05-10T09:30:40;4.90;;;4.70;;
17398;SDS011;8817;48.170;8.592;2023-05-10T09:33:07;5.40;;;5.07;;
17398;SDS011;8817;48.170;8.592;2023-05-10T09:35:34;5.28;;;5.10;;
17398;SDS011;8817;48.170;8.592;2023-05-10T09:38:02;5.20;;;5.00;;
17398;SDS011;8817;48.170;8.592;2023-05-10T09:40:31;5.05;;;4.80;;
17398;SDS011;8817;48.170;8.592;2023-05-10T09:42:58;5.20;;;5.10;;
17398;SDS011;8817;48.170;8.592;2023-05-10T09:45:28;5.00;;;4.90;;
17398;SDS011;8817;48.170;8.592;2023-05-10T09:47:56;5.20;;;5.00;;
17398;SDS011;8817;48.170;8.592;2023-05-10T09:50:24;5.43;;;5.07;;
17398;SDS011;8817;48.170;8.592;2023-05-10T09:52:52;4.78;;;4.55;;
17398;SDS011;8817;48.170;8.592;2023-05-10T09:55:21;4.95;;;4.85;;
17398;SDS011;8817;48.170;8.592;2023-05-10T09:57:49;5.10;;;4.85;;
17398;SDS011;8817;48.170;8.592;2023-05-10T10:00:33;4.93;;;4.68;;
17398;SDS011;8817;48.170;8.592;2023-05-10T10:03:02;4.80;;;4.70;;
17398;SDS011;8817;48.170;8.592;2023-05-10T10:05:29;4.90;;;4.80;;
17398;SDS011;8817;48.170;8.592;2023-05-10T10:07:56;4.70;;;4.55;;
17398;SDS011;8817;48.170;8.592;2023-05-10T10:10:24;4.30;;;4.20;;
17398;SDS011;8817;48.170;8.592;2023-05-10T10:12:52;4.75;;;4.45;;
17398;SDS011;8817;48.170;8.592;2023-05-10T10:15:20;4.60;;;4.40;;
17398;SDS011;8817;48.170;8.592;2023-05-10T10:17:49;4.70;;;4.60;;
17398;SDS011;8817;48.170;8.592;2023-05-10T10:20:17;4.68;;;4.50;;
17398;SDS011;8817;48.170;8.592;2023-05-10T10:22:46;4.43;;;4.30;;
17398;SDS011;8817;48.170;8.592;2023-05-10T10:25:14;4.95;;;4.53;;
17398;SDS011;8817;48.170;8.592;2023-05-10T10:27:44;7.50;;;6.55;;
17398;SDS011;8817;48.170;8.592;2023-05-10T10:30:24;5.80;;;5.40;;
17398;SDS011;8817;48.170;8.592;2023-05-10T10:33:13;4.63;;;4.50;;
17398;SDS011;8817;48.170;8.592;2023-05-10T10:35:54;4.97;;;4.78;;
17398;SDS011;8817;48.170;8.592;2023-05-10T10:38:24;4.55;;;4.40;;
17398;SDS011;8817;48.170;8.592;2023-05-10T10:41:01;4.30;;;4.20;;
17398;SDS011;8817;48.170;8.592;2023-05-10T10:43:28;4.70;;;4.60;;
17398;SDS011;8817;48.170;8.592;2023-05-10T10:46:11;4.70;;;4.60;;
17398;SDS011;8817;48.170;8.592;2023-05-10T10:48:40;5.60;;;5.20;;
17398;SDS011;8817;48.170;8.592;2023-05-10T10:51:13;5.47;;;5.20;;
17398;SDS011;8817;48.170;8.592;2023-05-10T10:53:40;5.18;;;4.97;;
17398;SDS011;8817;48.170;8.592;2023-05-10T10:56:07;5.32;;;5.18;;
17398;SDS011;8817;48.170;8.592;2023-05-10T10:58:36;5.10;;;5.00;;
17398;SDS011;8817;48.170;8.592;2023-05-10T11:01:13;4.80;;;4.70;;
17398;SDS011;8817;48.170;8.592;2023-05-10T11:06:45;5.10;;;5.00;;
17398;SDS011;8817;48.170;8.592;2023-05-10T11:09:12;5.30;;;5.10;;
17398;SDS011;8817;48.170;8.592;2023-05-10T11:11:48;5.43;;;5.13;;
17398;SDS011;8817;48.170;8.592;2023-05-10T11:14:20;5.30;;;5.20;;
17398;SDS011;8817;48.170;8.592;2023-05-10T11:16:48;5.10;;;5.00;;
17398;SDS011;8817;48.170;8.592;2023-05-10T11:19:17;5.47;;;5.20;;
17398;SDS011;8817;48.170;8.592;2023-05-10T11:21:45;5.43;;;5.23;;
17398;SDS011;8817;48.170;8.592;2023-05-10T11:24:13;5.60;;;5.17;;
17398;SDS011;8817;48.170;8.592;2023-05-10T11:26:41;4.90;;;4.75;;
17398;SDS011;8817;48.170;8.592;2023-05-10T11:29:08;5.10;;;5.00;;
17398;SDS011;8817;48.170;8.592;2023-05-10T11:31:35;5.17;;;5.00;;
17398;SDS011;8817;48.170;8.592;2023-05-10T11:34:08;6.15;;;5.20;;
17398;SDS011;8817;48.170;8.592;2023-05-10T11:36:37;5.25;;;5.10;;
17398;SDS011;8817;48.170;8.592;2023-05-10T11:39:04;5.30;;;5.10;;
17398;SDS011;8817;48.170;8.592;2023-05-10T11:41:31;5.57;;;5.37;;
17398;SDS011;8817;48.170;8.592;2023-05-10T11:43:58;5.40;;;5.20;;
17398;SDS011;8817;48.170;8.592;2023-05-10T11:46:26;5.50;;;5.30;;
17398;SDS011;8817;48.170;8.592;2023-05-10T11:48:58;5.60;;;5.40;;
17398;SDS011;8817;48.170;8.592;2023-05-10T11:51:29;5.00;;;4.70;;
17398;SDS011;8817;48.170;8.592;2023-05-10T11:54:00;5.10;;;4.90;;
17398;SDS011;8817;48.170;8.592;2023-05-10T11:56:27;5.00;;;4.90;;
17398;SDS011;8817;48.170;8.592;2023-05-10T11:58:55;5.75;;;5.43;;
17398;SDS011;8817;48.170;8.592;2023-05-10T12:01:23;5.20;;;5.00;;
17398;SDS011;8817;48.170;8.592;2023-05-10T12:03:51;5.10;;;4.90;;
17398;SDS011;8817;48.170;8.592;2023-05-10T12:06:19;5.10;;;4.80;;
17398;SDS011;8817;48.170;8.592;2023-05-10T12:08:47;5.00;;;4.80;;
17398;SDS011;8817;48.170;8.592;2023-05-10T12:11:18;4.90;;;4.72;;
17398;SDS011;8817;48.170;8.592;2023-05-10T12:13:46;5.13;;;4.90;;
17398;SDS011;8817;48.170;8.592;2023-05-10T12:16:15;4.60;;;4.50;;
17398;SDS011;8817;48.170;8.592;2023-05-10T12:18:43;4.53;;;4.43;;
17398;SDS011;8817;48.170;8.592;2023-05-10T12:21:11;4.53;;;4.40;;
17398;SDS011;8817;48.170;8.592;2023-05-10T12:23:38;4.65;;;4.53;;
17398;SDS011;8817;48.170;8.592;2023-05-10T12:26:05;4.45;;;4.35;;
17398;SDS011;8817;48.170;8.592;2023-05-10T12:28:36;5.22;;;4.70;;
17398;SDS011;8817;48.170;8.592;2023-05-10T12:31:05;4.78;;;4.57;;
17398;SDS011;8817;48.170;8.592;2023-05-10T12:33:36;4.70;;;4.50;;
17398;SDS011;8817;48.170;8.592;2023-05-10T12:36:06;4.63;;;4.53;;
17398;SDS011;8817;48.170;8.592;2023-05-10T12:38:34;4.65;;;4.32;;
17398;SDS011;8817;48.170;8.592;2023-05-10T12:41:03;4.85;;;4.65;;
17398;SDS011;8817;48.170;8.592;2023-05-10T12:43:32;5.15;;;4.82;;
17398;SDS011;8817;48.170;8.592;2023-05-10T12:46:05;5.03;;;4.70;;
17398;SDS011;8817;48.170;8.592;2023-05-10T12:48:33;4.72;;;4.53;;
17398;SDS011;8817;48.170;8.592;2023-05-10T12:51:00;7.88;;;4.93;;
17398;SDS011;8817;48.170;8.592;2023-05-10T12:53:27;4.88;;;4.75;;
17398;SDS011;8817;48.170;8.592;2023-05-10T12:55:54;4.95;;;4.75;;
17398;SDS011;8817;48.170;8.592;2023-05-10T12:58:21;4.80;;;4.70;;
17398;SDS011;8817;48.170;8.592;2023-05-10T13:00:48;4.85;;;4.70;;
17398;SDS011;8817;48.170;8.592;2023-05-10T13:03:18;4.97;;;4.80;;
17398;SDS011;8817;48.170;8.592;2023-05-10T13:05:45;4.80;;;4.60;;
17398;SDS011;8817;48.170;8.592;2023-05-10T13:08:12;4.97;;;4.78;;
17398;SDS011;8817;48.170;8.592;2023-05-10T13:10:38;4.72;;;4.40;;
17398;SDS011;8817;48.170;8.592;2023-05-10T13:13:05;4.72;;;4.63;;
17398;SDS011;8817;48.170;8.592;2023-05-10T13:15:33;4.50;;;4.40;;
17398;SDS011;8817;48.170;8.592;2023-05-10T13:18:00;4.43;;;4.32;;
17398;SDS011;8817;48.170;8.592;2023-05-10T13:20:28;5.00;;;4.80;;
17398;SDS011;8817;48.170;8.592;2023-05-10T13:22:55;4.70;;;4.50;;
17398;SDS011;8817;48.170;8.592;2023-05-10T13:25:22;4.97;;;4.78;;
17398;SDS011;8817;48.170;8.592;2023-05-10T13:27:49;4.65;;;4.50;;
17398;SDS011;8817;48.170;8.592;2023-05-10T13:30:16;4.90;;;4.80;;
17398;SDS011;8817;48.170;8.592;2023-05-10T13:32:43;5.00;;;4.72;;
17398;SDS011;8817;48.170;8.592;2023-05-10T13:35:10;4.57;;;4.47;;
17398;SDS011;8817;48.170;8.592;2023-05-10T13:37:38;5.30;;;4.78;;
17398;SDS011;8817;48.170;8.592;2023-05-10T13:40:06;5.13;;;4.93;;
17398;SDS011;8817;48.170;8.592;2023-05-10T13:42:33;5.47;;;5.00;;
17398;SDS011;8817;48.170;8.592;2023-05-10T13:45:00;5.55;;;4.80;;
17398;SDS011;8817;48.170;8.592;2023-05-10T13:47:27;5.25;;;4.95;;
17398;SDS011;8817;48.170;8.592;2023-05-10T13:49:54;5.10;;;4.80;;
17398;SDS011;8817;48.170;8.592;2023-05-10T13:52:22;4.95;;;4.70;;
17398;SDS011;8817;48.170;8.592;2023-05-10T13:54:50;4.60;;;4.50;;
17398;SDS011;8817;48.170;8.592;2023-05-10T13:57:19;4.70;;;4.60;;
17398;SDS011;8817;48.170;8.592;2023-05-10T13:59:46;4.65;;;4.55;;
17398;SDS011;8817;48.170;8.592;2023-05-10T14:02:14;4.70;;;4.50;;
17398;SDS011;8817;48.170;8.592;2023-05-10T14:04:40;5.55;;;4.63;;
17398;SDS011;8817;48.170;8.592;2023-05-10T14:07:07;4.40;;;4.30;;
17398;SDS011;8817;48.170;8.592;2023-05-10T14:09:34;4.82;;;4.53;;
17398;SDS011;8817;48.170;8.592;2023-05-10T14:12:02;5.07;;;4.88;;
17398;SDS011;8817;48.170;8.592;2023-05-10T14:14:29;5.20;;;4.90;;
17398;SDS011;8817;48.170;8.592;2023-05-10T14:16:56;10.98;;;7.30;;
17398;SDS011;8817;48.170;8.592;2023-05-10T14:19:24;7.28;;;6.38;;
17398;SDS011;8817;48.170;8.592;2023-05-10T14:21:51;5.30;;;5.10;;
17398;SDS011;8817;48.170;8.592;2023-05-10T14:24:18;5.82;;;5.50;;
17398;SDS011;8817;48.170;8.592;2023-05-10T14:26:45;4.90;;;4.80;;
17398;SDS011;8817;48.170;8.592;2023-05-10T14:29:13;4.70;;;4.60;;
17398;SDS011;8817;48.170;8.592;2023-05-10T14:31:40;4.97;;;4.80;;
17398;SDS011;8817;48.170;8.592;2023-05-10T14:34:07;5.22;;;4.93;;
17398;SDS011;8817;48.170;8.592;2023-05-10T14:36:34;5.20;;;5.00;;
17398;SDS011;8817;48.170;8.592;2023-05-10T14:39:01;7.07;;;6.47;;
17398;SDS011;8817;48.170;8.592;2023-05-10T14:41:28;6.53;;;6.03;;
17398;SDS011;8817;48.170;8.592;2023-05-10T14:43:56;5.32;;;4.85;;
17398;SDS011;8817;48.170;8.592;2023-05-10T14:46:24;5.40;;;5.10;;
17398;SDS011;8817;48.170;8.592;2023-05-10T14:48:51;6.47;;;5.97;;
17398;SDS011;8817;48.170;8.592;2023-05-10T14:51:18;5.90;;;5.40;;
17398;SDS011;8817;48.170;8.592;2023-05-10T14:53:46;6.88;;;6.30;;
17398;SDS011;8817;48.170;8.592;2023-05-10T14:56:14;5.00;;;4.80;;
17398;SDS011;8817;48.170;8.592;2023-05-10T14:58:41;5.00;;;4.80;;
17398;SDS011;8817;48.170;8.592;2023-05-10T15:01:07;5.30;;;5.00;;
17398;SDS011;8817;48.170;8.592;2023-05-10T15:03:36;6.05;;;5.65;;
17398;SDS011;8817;48.170;8.592;2023-05-10T15:06:03;4.93;;;4.72;;
17398;SDS011;8817;48.170;8.592;2023-05-10T15:08:30;5.65;;;5.35;;
17398;SDS011;8817;48.170;8.592;2023-05-10T15:10:57;5.80;;;5.40;;
17398;SDS011;8817;48.170;8.592;2023-05-10T15:13:24;5.35;;;5.05;;